Time;durP1;ratioP1;P1;durP2;ratioP2;P2;SDS_P1;SDS_P2;PMS_P1;PMS_P2;Temp;Humidity;BMP_temperature;BMP_pressure;BME280_temperature;BME280_humidity;BME280_pressure;Samples;Min_cycle;Max_cycle;Signal;HPM_P1;HPM_P2
2023/05/23 00:02:30;;;;;;;7.85;5.45;;;19.30;92.20;;;;;;10273157;28;20106;-69
2023/05/23 00:07:31;;;;;;;8.23;5.68;;;19.30;92.40;;;;;;10275436;28;20042;-69
2023/05/23 00:12:36;;;;;;;9.13;5.40;;;19.30;92.20;;;;;;10270480;28;20548;-69
2023/05/23 00:17:38;;;;;;;8.52;5.35;;;19.30;92.20;;;;;;10273311;28;20031;-68
2023/05/23 00:22:41;;;;;;;7.00;4.63;;;19.30;92.20;;;;;;10271052;28;20019;-69
2023/05/23 00:27:42;;;;;;;7.45;5.22;;;19.30;92.20;;;;;;10268836;28;20099;-69
2023/05/23 00:32:42;;;;;;;7.18;5.35;;;19.20;92.20;;;;;;10276522;28;20033;-69
2023/05/23 00:37:44;;;;;;;11.38;5.57;;;19.20;92.20;;;;;;10274225;28;20035;-68
2023/05/23 00:42:45;;;;;;;11.07;5.30;;;19.20;92.20;;;;;;10271894;28;20019;-68
2023/05/23 00:47:46;;;;;;;9.38;5.00;;;19.20;92.20;;;;;;10277506;28;20030;-68
2023/05/23 00:52:48;;;;;;;9.27;5.38;;;19.10;92.20;;;;;;10273933;28;20478;-69
2023/05/23 00:57:48;;;;;;;9.30;4.63;;;19.10;92.20;;;;;;10274577;28;20093;-68
2023/05/23 01:02:50;;;;;;;6.63;4.75;;;19.10;92.20;;;;;;10280514;28;20019;-69
2023/05/23 01:07:51;;;;;;;8.77;5.45;;;19.00;92.20;;;;;;10264736;28;20135;-68
2023/05/23 01:13:22;;;;;;;11.85;5.80;;;19.00;92.20;;;;;;10268388;28;20027;-68
2023/05/23 01:19:09;;;;;;;9.85;5.22;;;19.00;92.10;;;;;;10283347;28;20075;-68
2023/05/23 01:24:26;;;;;;;8.63;4.93;;;19.00;92.20;;;;;;10245158;28;20038;-68
2023/05/23 01:29:32;;;;;;;10.45;5.70;;;18.90;92.20;;;;;;10280727;28;20089;-68
2023/05/23 01:34:35;;;;;;;10.00;5.50;;;18.90;92.20;;;;;;10280258;28;20026;-68
2023/05/23 01:39:36;;;;;;;10.80;4.90;;;18.90;92.20;;;;;;10279635;28;20031;-68
2023/05/23 01:44:38;;;;;;;11.68;5.40;;;18.90;92.50;;;;;;10281565;28;20088;-69
2023/05/23 01:49:40;;;;;;;9.25;5.07;;;18.80;92.20;;;;;;10281172;28;20051;-69
2023/05/23 01:54:42;;;;;;;10.25;5.35;;;18.80;92.20;;;;;;10281756;28;20027;-69
2023/05/23 01:59:43;;;;;;;8.60;4.80;;;18.80;92.20;;;;;;10283335;28;20498;-69
2023/05/23 02:04:43;;;;;;;9.95;4.75;;;18.80;92.20;;;;;;10279793;28;20027;-69
2023/05/23 02:09:44;;;;;;;9.60;5.22;;;18.80;92.20;;;;;;10281968;28;20126;-69
2023/05/23 02:14:44;;;;;;;9.43;4.65;;;18.70;92.10;;;;;;10283592;28;20268;-68
2023/05/23 02:19:45;;;;;;;11.82;5.32;;;18.70;92.10;;;;;;10282227;28;20126;-69
2023/05/23 02:24:46;;;;;;;8.38;5.25;;;18.70;92.10;;;;;;10282438;28;20026;-67
2023/05/23 02:29:46;;;;;;;8.88;4.75;;;18.60;92.10;;;;;;10281466;28;20221;-69
2023/05/23 02:34:49;;;;;;;10.63;5.43;;;18.70;92.10;;;;;;10282441;28;20526;-68
2023/05/23 02:39:50;;;;;;;9.85;4.90;;;18.60;92.10;;;;;;10280140;28;20228;-68
2023/05/23 02:44:50;;;;;;;8.52;4.85;;;18.60;92.10;;;;;;10279157;28;20039;-69
2023/05/23 02:49:51;;;;;;;12.25;5.05;;;18.60;92.10;;;;;;10281191;28;20037;-69
2023/05/23 02:54:52;;;;;;;13.80;4.78;;;18.50;92.00;;;;;;10281297;28;20458;-69
2023/05/23 02:59:52;;;;;;;11.60;4.63;;;18.50;92.00;;;;;;10277848;28;20035;-69
2023/05/23 03:04:54;;;;;;;7.75;4.28;;;18.50;92.00;;;;;;10280757;28;20027;-69
2023/05/23 03:09:55;;;;;;;9.18;4.50;;;18.40;92.00;;;;;;10267639;28;20074;-69
2023/05/23 03:14:56;;;;;;;7.93;4.20;;;18.50;92.00;;;;;;10275758;28;20194;-68
2023/05/23 03:19:56;;;;;;;6.80;4.68;;;18.40;91.90;;;;;;10274209;28;20418;-68
2023/05/23 03:24:57;;;;;;;10.60;4.55;;;18.40;91.90;;;;;;10275075;28;20020;-68
2023/05/23 03:29:57;;;;;;;8.90;3.97;;;18.30;91.90;;;;;;10269081;28;20019;-68
2023/05/23 03:34:58;;;;;;;8.32;4.25;;;18.30;91.90;;;;;;10252625;28;20023;-69
2023/05/23 03:39:59;;;;;;;8.18;4.30;;;18.30;91.80;;;;;;10272312;28;20058;-68
2023/05/23 03:44:59;;;;;;;10.07;4.93;;;18.30;91.80;;;;;;10271137;28;20028;-69
2023/05/23 03:50:00;;;;;;;8.88;4.47;;;18.30;91.80;;;;;;10271923;28;20131;-68
2023/05/23 03:55:01;;;;;;;7.72;4.60;;;18.20;91.80;;;;;;10274050;28;20060;-67
2023/05/23 04:00:05;;;;;;;9.43;4.32;;;18.20;91.80;;;;;;10272580;28;20070;-68
2023/05/23 04:05:06;;;;;;;11.63;4.30;;;18.20;91.80;;;;;;10249994;28;20019;-69
2023/05/23 04:10:08;;;;;;;12.93;4.63;;;18.20;91.70;;;;;;10270528;28;20053;-68
2023/05/23 04:15:10;;;;;;;8.52;4.03;;;18.20;91.70;;;;;;10267686;28;20603;-68
2023/05/23 04:20:11;;;;;;;9.60;4.53;;;18.10;91.70;;;;;;10275944;28;20498;-68
2023/05/23 04:25:12;;;;;;;5.50;3.63;;;18.10;91.70;;;;;;10270556;28;20071;-69
2023/05/23 04:30:15;;;;;;;8.15;3.53;;;18.10;91.70;;;;;;10253132;28;20023;-68
2023/05/23 04:35:17;;;;;;;6.57;3.80;;;18.10;91.70;;;;;;10274989;28;20035;-69
2023/05/23 04:40:18;;;;;;;8.77;3.88;;;18.10;91.70;;;;;;10281986;28;20046;-68
2023/05/23 04:45:18;;;;;;;9.60;3.47;;;18.00;91.60;;;;;;10285323;28;20068;-68
2023/05/23 04:50:21;;;;;;;7.70;3.50;;;18.00;91.60;;;;;;10277596;28;20109;-68
2023/05/23 04:55:22;;;;;;;7.68;3.53;;;18.00;91.60;;;;;;10260205;28;20023;-68
2023/05/23 05:00:23;;;;;;;10.57;3.60;;;17.90;91.60;;;;;;10277402;28;20038;-68
2023/05/23 05:05:24;;;;;;;8.57;3.20;;;17.90;91.60;;;;;;10277605;28;20560;-68
2023/05/23 05:10:24;;;;;;;8.85;3.33;;;17.90;91.60;;;;;;10274467;28;20027;-68
2023/05/23 05:15:25;;;;;;;9.20;3.90;;;17.90;91.60;;;;;;10275705;28;20019;-69
2023/05/23 05:20:25;;;;;;;6.00;2.92;;;17.90;91.60;;;;;;10277378;28;20023;-68
2023/05/23 05:25:30;;;;;;;5.75;2.85;;;17.80;91.50;;;;;;10262353;28;20038;-68
2023/05/23 05:30:34;;;;;;;7.95;3.20;;;17.80;91.50;;;;;;10276291;28;20029;-68
2023/05/23 05:35:34;;;;;;;6.18;2.63;;;17.80;91.50;;;;;;10272029;28;20105;-68
2023/05/23 05:40:35;;;;;;;8.27;2.60;;;17.70;91.40;;;;;;10279793;28;20117;-68
2023/05/23 05:45:35;;;;;;;7.68;3.90;;;17.80;91.50;;;;;;10272740;28;20026;-69
2023/05/23 05:50:36;;;;;;;7.13;3.08;;;17.70;91.60;;;;;;10271536;28;20027;-68
2023/05/23 05:55:37;;;;;;;6.20;2.67;;;17.60;91.60;;;;;;10276298;28;20122;-68
2023/05/23 06:00:41;;;;;;;7.35;3.00;;;17.60;91.50;;;;;;10277263;28;20025;-68
2023/05/23 06:05:42;;;;;;;8.57;3.38;;;17.70;91.50;;;;;;10208286;28;1535244;-67
2023/05/23 06:10:42;;;;;;;7.07;3.03;;;17.60;91.50;;;;;;10276522;28;20178;-68
2023/05/23 06:15:43;;;;;;;9.18;3.25;;;17.60;91.50;;;;;;10277191;28;20022;-69
2023/05/23 06:20:43;;;;;;;7.43;2.53;;;17.60;91.50;;;;;;10273725;28;20042;-68
2023/05/23 06:25:44;;;;;;;7.82;2.80;;;17.60;91.40;;;;;;10279920;28;20023;-68
2023/05/23 06:30:44;;;;;;;6.82;2.75;;;17.50;91.30;;;;;;10276688;28;20034;-67
2023/05/23 06:35:45;;;;;;;8.77;3.05;;;17.50;91.30;;;;;;10279729;28;20122;-67
2023/05/23 06:40:46;;;;;;;8.68;2.80;;;17.40;91.30;;;;;;10278757;28;20031;-67
2023/05/23 06:45:46;;;;;;;7.47;3.00;;;17.30;91.20;;;;;;10274617;28;20022;-67
2023/05/23 06:50:47;;;;;;;7.43;3.10;;;17.40;91.20;;;;;;10279767;28;20023;-67
2023/05/23 06:55:48;;;;;;;6.70;3.08;;;17.40;91.10;;;;;;10272047;28;20487;-67
2023/05/23 07:00:49;;;;;;;5.68;2.97;;;17.40;91.10;;;;;;10257307;28;20023;-67
2023/05/23 07:05:50;;;;;;;6.55;3.00;;;17.40;91.00;;;;;;10276466;28;20063;-67
2023/05/23 07:24:45;;;;;;;5.65;2.47;;;17.40;91.00;;;;;;10634023;27;20431;-68
2023/05/23 07:29:45;;;;;;;4.90;2.50;;;17.50;90.80;;;;;;10630366;27;20092;-68
2023/05/23 07:34:46;;;;;;;6.50;2.15;;;17.50;90.70;;;;;;10624644;27;20495;-68
2023/05/23 07:39:46;;;;;;;9.68;2.55;;;17.60;90.70;;;;;;10632785;27;20514;-68
2023/05/23 07:44:47;;;;;;;7.07;2.20;;;17.50;90.60;;;;;;10631196;27;20029;-66
2023/05/23 07:49:47;;;;;;;6.57;2.42;;;17.60;90.60;;;;;;10633733;27;20084;-67
2023/05/23 07:54:48;;;;;;;5.53;2.05;;;17.50;90.60;;;;;;10431255;27;20033;-66
2023/05/23 07:59:50;;;;;;;7.70;2.60;;;17.50;90.50;;;;;;10497498;28;20447;-65
2023/05/23 08:04:52;;;;;;;5.90;2.08;;;17.50;90.50;;;;;;10515630;28;20078;-66
2023/05/23 08:09:52;;;;;;;7.43;2.90;;;17.40;90.50;;;;;;10510262;28;20094;-65
2023/05/23 08:14:53;;;;;;;5.85;2.30;;;17.50;90.40;;;;;;10505748;28;20451;-66
2023/05/23 08:19:53;;;;;;;5.15;2.03;;;17.50;90.40;;;;;;10508640;28;20035;-65
2023/05/23 08:24:54;;;;;;;7.72;1.85;;;17.60;90.30;;;;;;10498957;28;20036;-65
2023/05/23 08:29:55;;;;;;;4.35;1.85;;;17.60;90.30;;;;;;10465484;23;20041;-81
2023/05/23 08:34:58;;;;;;;5.72;1.88;;;17.80;90.30;;;;;;10429916;28;20064;-83
2023/05/23 08:40:00;;;;;;;7.20;2.00;;;17.80;90.20;;;;;;10393228;28;20494;-84
2023/05/23 08:45:01;;;;;;;5.78;1.90;;;17.70;90.10;;;;;;10407693;28;20017;-83
2023/05/23 08:50:05;;;;;;;5.57;2.10;;;17.70;90.10;;;;;;10415521;28;20026;-84
2023/05/23 08:55:10;;;;;;;6.68;1.95;;;17.70;90.10;;;;;;10407455;28;20048;-84
2023/05/23 09:00:15;;;;;;;8.27;1.80;;;17.70;90.10;;;;;;10394883;28;20045;-84
2023/05/23 09:05:16;;;;;;;4.72;1.70;;;17.70;90.10;;;;;;10407394;28;20024;-84
2023/05/23 09:10:21;;;;;;;7.68;2.17;;;17.70;90.10;;;;;;10379230;28;20029;-85
2023/05/23 09:15:22;;;;;;;6.57;2.22;;;17.80;90.10;;;;;;10421300;28;20018;-83
2023/05/23 09:20:24;;;;;;;2.97;2.00;;;17.70;90.00;;;;;;10406242;28;20486;-84
2023/05/23 09:25:25;;;;;;;5.45;2.22;;;17.80;90.00;;;;;;10414173;28;20063;-84
2023/05/23 09:30:26;;;;;;;6.97;2.00;;;17.90;90.00;;;;;;10394453;28;20028;-85
2023/05/23 09:35:29;;;;;;;6.03;2.10;;;17.90;89.70;;;;;;10403195;28;20141;-85
2023/05/23 09:40:31;;;;;;;7.10;2.08;;;17.90;89.60;;;;;;10390704;28;20128;-84
2023/05/23 09:45:33;;;;;;;4.55;1.92;;;17.90;89.40;;;;;;10425840;28;20028;-85
2023/05/23 09:50:33;;;;;;;4.70;1.88;;;18.00;89.40;;;;;;10395037;28;20032;-85
2023/05/23 09:55:34;;;;;;;5.20;1.77;;;18.00;89.30;;;;;;10408976;28;20124;-85
2023/05/23 10:00:35;;;;;;;7.55;2.10;;;18.00;89.20;;;;;;10403112;28;20037;-85
2023/05/23 10:05:44;;;;;;;3.42;1.95;;;18.10;89.20;;;;;;10414943;28;20033;-83
2023/05/23 10:11:12;;;;;;;6.85;2.35;;;18.00;88.90;;;;;;10426521;28;20103;-83
2023/05/23 10:18:44;;;;;;;7.22;2.22;;;18.10;88.10;;;;;;10668854;22;20404;-64
2023/05/23 10:23:47;;;;;;;5.47;1.88;;;18.20;88.60;;;;;;10487259;28;20048;-63
2023/05/23 10:28:49;;;;;;;7.63;1.80;;;18.20;88.60;;;;;;10503204;28;20444;-65
2023/05/23 10:34:01;;;;;;;5.20;1.88;;;18.20;88.50;;;;;;10505651;28;20552;-65
2023/05/23 10:39:12;;;;;;;5.85;1.95;;;18.10;88.30;;;;;;10514036;28;20479;-64
2023/05/23 10:44:25;;;;;;;8.10;1.67;;;18.20;88.20;;;;;;10517832;28;20495;-64
2023/05/23 10:49:44;;;;;;;3.92;1.58;;;18.20;88.20;;;;;;10510608;28;20128;-64
2023/05/23 10:54:50;;;;;;;6.43;1.65;;;18.20;88.00;;;;;;10451155;22;20034;-67
2023/05/23 10:59:51;;;;;;;8.50;2.22;;;18.30;88.20;;;;;;10430534;28;20033;-67
2023/05/23 11:05:19;;;;;;;4.75;1.85;;;18.30;88.20;;;;;;10419968;28;20516;-68
2023/05/23 11:10:20;;;;;;;;;;;18.30;87.60;;;;;;10427571;28;20118;-68
2023/05/23 11:15:21;;;;;;;4.80;1.50;;;18.30;87.50;;;;;;10425522;28;20381;-68
2023/05/23 11:20:27;;;;;;;6.13;1.70;;;18.30;87.90;;;;;;10407664;28;20009;-67
2023/05/23 11:25:42;;;;;;;4.88;1.70;;;18.30;87.80;;;;;;10420537;28;20033;-67
2023/05/23 11:30:43;;;;;;;2.55;1.60;;;18.40;87.60;;;;;;10402225;28;20037;-68
2023/05/23 11:35:48;;;;;;;7.60;1.80;;;18.40;87.70;;;;;;10401600;28;20021;-68
2023/05/23 11:40:49;;;;;;;6.55;2.10;;;18.40;87.40;;;;;;10398138;28;20018;-67
2023/05/23 11:45:50;;;;;;;5.15;2.25;;;18.40;87.40;;;;;;10376041;28;20033;-68
2023/05/23 11:50:52;;;;;;;4.90;1.77;;;18.40;87.40;;;;;;10402528;28;20034;-68
2023/05/23 11:55:54;;;;;;;4.43;1.60;;;18.40;87.40;;;;;;10396310;28;20160;-68
2023/05/23 12:00:59;;;;;;;6.18;1.70;;;18.40;87.20;;;;;;10399160;28;20017;-68
2023/05/23 12:06:03;;;;;;;4.90;1.60;;;18.50;87.10;;;;;;10402778;28;20058;-67
2023/05/23 12:11:04;;;;;;;7.70;1.60;;;18.50;87.10;;;;;;10399057;28;20071;-68
2023/05/23 12:16:05;;;;;;;4.97;1.92;;;18.50;87.00;;;;;;10402739;28;20029;-67
2023/05/23 12:21:07;;;;;;;4.20;1.55;;;18.50;87.00;;;;;;10401850;28;20067;-67
2023/05/23 12:26:08;;;;;;;5.05;1.80;;;18.60;86.90;;;;;;10400022;28;20083;-67
2023/05/23 12:31:12;;;;;;;5.35;1.75;;;18.60;86.70;;;;;;10389322;28;20017;-67
2023/05/23 12:36:25;;;;;;;5.30;1.50;;;18.50;86.80;;;;;;10412869;22;20095;-67
2023/05/23 12:41:26;;;;;;;7.35;1.83;;;18.50;86.60;;;;;;10425449;28;20083;-68
2023/05/23 12:46:27;;;;;;;8.23;3.05;;;18.50;87.00;;;;;;10455119;22;20048;-68
2023/05/23 12:51:27;;;;;;;4.22;1.60;;;18.60;86.90;;;;;;10514746;28;20435;-68
2023/05/23 12:56:28;;;;;;;5.30;2.28;;;18.60;86.70;;;;;;10519787;28;20035;-68
2023/05/23 13:01:29;;;;;;;7.97;2.13;;;18.60;86.50;;;;;;10514280;28;20530;-67
2023/05/23 13:06:30;;;;;;;6.03;1.73;;;18.60;86.30;;;;;;10497987;22;20098;-73
2023/05/23 13:11:31;;;;;;;5.55;1.60;;;18.60;86.20;;;;;;10472971;28;20074;-73
2023/05/23 13:16:31;;;;;;;6.13;1.83;;;18.60;86.20;;;;;;10479383;28;20032;-73
2023/05/23 13:21:32;;;;;;;4.18;1.45;;;18.80;85.90;;;;;;10480936;28;20020;-73
2023/05/23 13:26:33;;;;;;;6.50;1.80;;;18.80;85.70;;;;;;10480267;28;20070;-73
2023/05/23 13:31:33;;;;;;;5.47;2.00;;;18.80;85.60;;;;;;10480427;28;20502;-73
2023/05/23 13:36:34;;;;;;;3.42;1.50;;;18.90;85.50;;;;;;10482907;28;20070;-73
2023/05/23 13:41:35;;;;;;;7.03;1.77;;;18.80;85.60;;;;;;10468601;28;20021;-73
2023/05/23 13:46:36;;;;;;;6.78;2.10;;;18.80;85.70;;;;;;10480673;28;20081;-73
2023/05/23 13:51:36;;;;;;;2.72;1.50;;;18.70;85.70;;;;;;10477079;28;20479;-73
2023/05/23 13:56:38;;;;;;;4.60;1.60;;;18.80;85.60;;;;;;10476717;28;20024;-73
2023/05/23 14:01:39;;;;;;;3.92;1.63;;;18.80;85.30;;;;;;10469726;28;20047;-73
2023/05/23 14:06:40;;;;;;;7.63;1.83;;;18.90;85.10;;;;;;10478373;28;20136;-73
2023/05/23 14:11:40;;;;;;;5.25;1.45;;;19.00;85.00;;;;;;10468248;28;20043;-73
2023/05/23 14:16:41;;;;;;;5.82;1.20;;;19.20;84.70;;;;;;10474262;28;20028;-73
2023/05/23 14:21:41;;;;;;;4.57;1.38;;;19.30;84.50;;;;;;10475001;28;20035;-73
2023/05/23 14:26:42;;;;;;;3.15;1.23;;;19.30;84.50;;;;;;10467721;28;20025;-73
2023/05/23 14:31:43;;;;;;;7.90;1.67;;;19.40;84.20;;;;;;10478843;28;20032;-73
2023/05/23 14:36:43;;;;;;;4.00;1.30;;;19.50;83.70;;;;;;10470477;28;20429;-74
2023/05/23 14:41:45;;;;;;;4.50;1.48;;;19.50;83.70;;;;;;10477683;28;20009;-73
2023/05/23 14:46:48;;;;;;;8.43;1.73;;;19.50;83.30;;;;;;10471101;28;20052;-73
2023/05/23 14:51:49;;;;;;;4.38;1.50;;;19.60;82.80;;;;;;10471432;28;20025;-74
2023/05/23 14:56:50;;;;;;;6.32;1.95;;;19.70;82.50;;;;;;10468363;28;20082;-73
2023/05/23 15:01:51;;;;;;;4.75;1.45;;;19.90;82.40;;;;;;10474396;28;20021;-73
2023/05/23 15:06:51;;;;;;;5.10;1.73;;;19.90;82.00;;;;;;10475280;28;20419;-73
2023/05/23 15:11:52;;;;;;;3.78;1.38;;;19.90;82.00;;;;;;10470066;28;20127;-73
2023/05/23 15:16:52;;;;;;;4.20;1.55;;;20.00;81.90;;;;;;10479884;28;20035;-74
2023/05/23 15:21:53;;;;;;;5.10;1.35;;;19.90;81.60;;;;;;10482165;28;20452;-73
2023/05/23 15:26:54;;;;;;;10.95;2.55;;;20.20;81.00;;;;;;10484581;28;20024;-74
2023/05/23 15:31:54;;;;;;;8.02;2.10;;;19.50;76.40;;;;;;10486816;28;20050;-74
2023/05/23 15:36:55;;;;;;;8.95;2.17;;;18.40;74.40;;;;;;10479575;28;20452;-75
2023/05/23 15:41:56;;;;;;;9.13;1.85;;;17.80;74.20;;;;;;10469238;28;20028;-74
2023/05/23 15:46:56;;;;;;;8.38;1.60;;;17.70;73.40;;;;;;10483742;28;20028;-74
2023/05/23 15:51:57;;;;;;;3.78;1.00;;;17.20;71.40;;;;;;10467500;28;20368;-75
2023/05/23 15:56:57;;;;;;;10.48;2.00;;;16.80;71.50;;;;;;10468298;28;20029;-74
2023/05/23 16:01:58;;;;;;;10.40;2.08;;;16.30;71.50;;;;;;10472798;28;20024;-74
2023/05/23 16:06:59;;;;;;;4.75;1.85;;;16.00;72.20;;;;;;10475086;28;20035;-74
2023/05/23 16:11:59;;;;;;;3.13;1.10;;;15.60;72.80;;;;;;10478138;28;20039;-74
2023/05/23 16:17:01;;;;;;;5.53;1.65;;;15.50;72.10;;;;;;10479578;28;20029;-74
2023/05/23 16:22:02;;;;;;;4.75;1.20;;;15.30;72.60;;;;;;10481499;28;20079;-73
2023/05/23 16:27:03;;;;;;;5.03;1.20;;;15.30;71.80;;;;;;10483917;28;20449;-75
2023/05/23 16:32:04;;;;;;;4.60;1.02;;;15.10;71.20;;;;;;10482352;28;20267;-75
2023/05/23 16:37:05;;;;;;;10.50;2.30;;;15.00;72.10;;;;;;10471137;28;20033;-73
2023/05/23 16:42:07;;;;;;;6.22;1.35;;;14.90;72.60;;;;;;10477310;28;20044;-74
2023/05/23 16:47:07;;;;;;;8.55;1.33;;;14.90;73.20;;;;;;10470456;22;20079;-72
2023/05/23 16:52:08;;;;;;;7.00;1.63;;;14.80;73.00;;;;;;10435912;23;20055;-73
2023/05/23 16:57:10;;;;;;;7.63;1.45;;;14.60;73.00;;;;;;10470110;22;20179;-74
2023/05/23 17:02:13;;;;;;;7.60;1.52;;;14.50;73.00;;;;;;10479488;28;20021;-75
2023/05/23 17:07:14;;;;;;;8.05;1.48;;;14.40;73.60;;;;;;10471586;28;20016;-74
2023/05/23 17:12:15;;;;;;;5.15;0.98;;;14.60;73.60;;;;;;10498434;23;20036;-70
2023/05/23 17:17:15;;;;;;;5.47;1.27;;;14.60;73.60;;;;;;10479420;28;20032;-70
2023/05/23 17:22:16;;;;;;;7.80;1.88;;;14.70;73.80;;;;;;10475590;28;20071;-70
2023/05/23 17:27:16;;;;;;;6.35;1.35;;;14.70;74.00;;;;;;10472857;28;20024;-72
2023/05/23 17:32:18;;;;;;;5.00;1.50;;;14.50;73.60;;;;;;10473800;28;20041;-72
2023/05/23 17:37:19;;;;;;;6.38;1.67;;;14.50;73.40;;;;;;10470274;28;20021;-72
2023/05/23 17:42:20;;;;;;;7.35;1.50;;;14.50;74.00;;;;;;10481085;28;20391;-69
2023/05/23 17:47:20;;;;;;;6.35;1.45;;;14.60;74.00;;;;;;10482327;28;20081;-70
2023/05/23 17:52:21;;;;;;;7.32;1.70;;;14.50;73.90;;;;;;10486418;28;20112;-69
2023/05/23 17:57:22;;;;;;;4.15;1.50;;;14.20;74.40;;;;;;10460746;28;20669;-69
2023/05/23 18:02:22;;;;;;;4.80;1.55;;;14.10;74.90;;;;;;10477392;28;20427;-66
2023/05/23 18:07:23;;;;;;;5.63;1.40;;;14.50;75.20;;;;;;10480665;28;20094;-66
2023/05/23 18:12:24;;;;;;;8.68;1.10;;;14.90;74.80;;;;;;10483987;28;20131;-66
2023/05/23 18:17:25;;;;;;;6.93;1.50;;;15.30;74.50;;;;;;10472012;28;20081;-65
2023/05/23 18:22:26;;;;;;;7.25;1.25;;;15.60;74.40;;;;;;10481547;28;20028;-65
2023/05/23 18:27:26;;;;;;;7.70;1.50;;;15.80;74.50;;;;;;10484075;28;20020;-66
2023/05/23 18:32:27;;;;;;;4.57;1.20;;;16.10;74.60;;;;;;10466604;28;20556;-66
2023/05/23 18:37:28;;;;;;;4.03;1.27;;;16.20;74.70;;;;;;10475557;28;20495;-65
2023/05/23 18:42:30;;;;;;;5.93;1.50;;;16.20;74.80;;;;;;10483070;28;20032;-65
2023/05/23 18:47:33;;;;;;;5.00;1.27;;;16.40;75.00;;;;;;10483538;28;20025;-66
2023/05/23 18:52:36;;;;;;;5.03;1.00;;;16.40;75.10;;;;;;10484542;28;20013;-66
2023/05/23 18:57:36;;;;;;;4.43;1.27;;;16.50;75.30;;;;;;10485669;28;20020;-66
2023/05/23 19:02:42;;;;;;;6.35;1.20;;;16.60;75.30;;;;;;10482830;28;20028;-66
2023/05/23 19:07:43;;;;;;;3.20;1.17;;;16.70;75.50;;;;;;10483854;28;20037;-66
2023/05/23 19:12:43;;;;;;;3.08;0.95;;;16.60;75.60;;;;;;10479019;28;20021;-66
2023/05/23 19:17:44;;;;;;;5.05;1.10;;;16.60;75.70;;;;;;10490958;28;20028;-66
2023/05/23 19:22:46;;;;;;;4.68;1.30;;;16.70;75.90;;;;;;10485625;28;20016;-66
2023/05/23 19:27:46;;;;;;;7.57;1.40;;;16.70;76.00;;;;;;10483531;28;20166;-65
2023/05/23 19:32:47;;;;;;;3.83;1.15;;;16.70;76.20;;;;;;10486966;28;20028;-66
2023/05/23 19:37:48;;;;;;;5.07;1.30;;;16.70;76.30;;;;;;10487773;28;20149;-66
2023/05/23 19:42:49;;;;;;;4.57;1.10;;;16.70;76.40;;;;;;10478779;28;20497;-66
2023/05/23 19:47:49;;;;;;;6.45;1.35;;;16.60;76.50;;;;;;10477946;28;20052;-66
2023/05/23 19:52:50;;;;;;;3.70;1.50;;;16.60;76.60;;;;;;10480705;28;20470;-66
2023/05/23 19:57:51;;;;;;;5.82;1.30;;;16.60;76.70;;;;;;10485952;28;20144;-66
2023/05/23 20:02:52;;;;;;;4.03;1.52;;;16.70;76.80;;;;;;10475168;28;20152;-66
2023/05/23 20:07:52;;;;;;;6.85;1.52;;;16.40;76.70;;;;;;10477422;28;20307;-67
2023/05/23 20:12:53;;;;;;;4.90;1.30;;;16.60;76.90;;;;;;10471317;28;20091;-66
2023/05/23 20:17:53;;;;;;;6.35;2.05;;;16.60;77.00;;;;;;10486376;28;20563;-66
2023/05/23 20:22:54;;;;;;;4.13;1.40;;;16.60;77.10;;;;;;10483254;28;20028;-66
2023/05/23 20:27:55;;;;;;;8.02;1.63;;;16.60;77.20;;;;;;10479548;28;20067;-66
2023/05/23 20:32:56;;;;;;;5.47;1.58;;;16.50;77.20;;;;;;10476853;28;20032;-66
2023/05/23 20:37:57;;;;;;;6.80;1.17;;;16.60;77.40;;;;;;10473570;28;20103;-66
2023/05/23 20:43:03;;;;;;;7.40;1.40;;;16.50;77.40;;;;;;10472311;28;20482;-66
2023/05/23 20:48:03;;;;;;;5.88;1.50;;;16.50;77.50;;;;;;10475599;28;20079;-66
2023/05/23 20:53:05;;;;;;;7.90;1.50;;;16.50;77.60;;;;;;10485240;28;20032;-66
2023/05/23 20:58:06;;;;;;;4.65;1.67;;;16.50;77.70;;;;;;10475572;28;20111;-66
2023/05/23 21:03:06;;;;;;;4.78;1.75;;;16.40;77.70;;;;;;10478302;28;20031;-67
2023/05/23 21:08:07;;;;;;;5.65;1.40;;;16.50;77.80;;;;;;10478682;28;20527;-67
2023/05/23 21:13:08;;;;;;;6.40;1.40;;;16.40;77.80;;;;;;10476749;28;20078;-68
2023/05/23 21:18:08;;;;;;;6.80;2.10;;;16.40;77.80;;;;;;10473944;28;20039;-67
2023/05/23 21:23:09;;;;;;;5.25;1.70;;;16.40;77.90;;;;;;10478176;28;20020;-67
2023/05/23 21:28:09;;;;;;;6.63;1.40;;;16.40;77.90;;;;;;10486154;28;20031;-67
2023/05/23 21:33:11;;;;;;;5.78;1.30;;;16.30;78.00;;;;;;10466991;28;20375;-67
2023/05/23 21:38:11;;;;;;;6.80;1.73;;;16.30;78.00;;;;;;10485386;28;20414;-66
2023/05/23 21:43:12;;;;;;;5.07;1.55;;;16.30;78.00;;;;;;10477141;28;20025;-66
2023/05/23 21:48:13;;;;;;;5.18;1.80;;;16.30;78.00;;;;;;10470646;28;20412;-67
2023/05/23 21:53:13;;;;;;;6.53;1.77;;;16.30;78.10;;;;;;10483210;28;20395;-66
2023/05/23 21:58:14;;;;;;;5.57;1.70;;;16.20;78.10;;;;;;10479901;28;20028;-66
2023/05/23 22:03:15;;;;;;;4.95;1.35;;;16.20;78.10;;;;;;10486458;28;20387;-66
2023/05/23 22:08:16;;;;;;;7.68;1.67;;;16.20;78.20;;;;;;10478460;28;20027;-66
2023/05/23 22:13:17;;;;;;;7.65;1.50;;;16.20;78.20;;;;;;10483910;28;20033;-67
2023/05/23 22:18:18;;;;;;;7.70;1.90;;;16.20;78.20;;;;;;10477612;28;20032;-66
2023/05/23 22:23:19;;;;;;;5.85;1.42;;;16.10;78.20;;;;;;10480407;28;20029;-66
2023/05/23 22:28:20;;;;;;;7.15;1.63;;;16.10;78.20;;;;;;10485431;28;20025;-67
2023/05/23 22:33:21;;;;;;;4.47;1.67;;;16.10;78.20;;;;;;10487641;28;20037;-66
2023/05/23 22:38:21;;;;;;;6.63;1.90;;;16.10;78.30;;;;;;10472251;28;20029;-68
2023/05/23 22:43:22;;;;;;;4.28;1.65;;;16.10;78.30;;;;;;10482240;28;20510;-69
2023/05/23 22:48:23;;;;;;;6.18;1.85;;;16.00;78.30;;;;;;10477726;28;20101;-69
2023/05/23 22:53:24;;;;;;;6.18;1.92;;;16.00;78.30;;;;;;10486154;28;20024;-69
2023/05/23 22:58:25;;;;;;;5.50;1.88;;;16.00;78.40;;;;;;10479674;28;20028;-69
2023/05/23 23:03:26;;;;;;;5.30;1.70;;;15.90;78.40;;;;;;10476741;28;20019;-69
2023/05/23 23:08:26;;;;;;;8.13;1.92;;;15.90;78.40;;;;;;10476747;28;20031;-68
2023/05/23 23:13:27;;;;;;;5.15;1.92;;;15.90;78.40;;;;;;10495521;28;20028;-69
2023/05/23 23:18:28;;;;;;;5.93;2.17;;;15.90;78.50;;;;;;10465342;28;20025;-68
2023/05/23 23:23:28;;;;;;;5.10;1.85;;;15.90;78.50;;;;;;10475658;28;20476;-68
2023/05/23 23:28:29;;;;;;;6.15;2.33;;;15.90;78.50;;;;;;10480377;28;20021;-66
2023/05/23 23:33:30;;;;;;;5.80;2.05;;;15.80;78.50;;;;;;10481352;28;20047;-66
2023/05/23 23:38:30;;;;;;;7.68;1.77;;;15.80;78.50;;;;;;10474809;28;20069;-65
2023/05/23 23:43:31;;;;;;;6.78;1.98;;;15.80;78.60;;;;;;10476932;28;20032;-66
2023/05/23 23:48:31;;;;;;;7.13;1.83;;;15.80;78.60;;;;;;10483612;28;20024;-66
2023/05/23 23:53:32;;;;;;;9.93;1.92;;;15.70;78.60;;;;;;10469048;28;20025;-66
2023/05/23 23:58:33;;;;;;;5.13;1.67;;;15.70;78.60;;;;;;10483241;28;20388;-66
